الصفحة الرئيسية
METAR-TAF:

METAR-TAF

مطار :

Torrington Municipal Airport

Torrington, وايومنغ, الولايات المتحدة

دائرة عرض: 42-03-53N, خط طول: 104-09-10W, ارتفاع: 1282 متر

مراقبة الطقس الحالي

تاريخ ووقت الإصدار 27 دقيقة قبل الساعة 22:53UTC
ريح 5 عقدة من الغرب
درجة الحرارة 32°درجة مئوية
الرطوبة 6%
ضغط 1014 hPa
الرؤية: 16.1 كم
سماء صافية

METAR: KTOR 222253Z AUTO 26005KT 10SM CLR 32/M10 A2995 RMK AO2 SLP096 T03171100

زمن: 17:20 (23:20 UTC)


TAF: مفقودة

أرصاد الطقس والتوقعات من أكثر من 4000 مطار (تقارير الطقس للمطار METAR والتنبؤ بالطقس بالمطارTAF).

المحطات المتاحة هي النقط الصفراء والحمراء على الخريطة.

حرك المؤشر فوق النقطة لمعرفة اسم المحطة.

ثم انقر لمعرفة أرصاد وتوقعات الطقس.

لتغيير الخارطة: اضغط على الأزرار الخضراء مع رمز الصليب الأسود للتكبير. على الزر الأخضر مع شرطة للتصغير، أو على الأسهم الخضراء للخرائط المجاورة.


METAR-TAF: